Time;durP1;ratioP1;P1;durP2;ratioP2;P2;SDS_P1;SDS_P2;PMS_P1;PMS_P2;Temp;Humidity;BMP_temperature;BMP_pressure;BME280_temperature;BME280_humidity;BME280_pressure;Samples;Min_cycle;Max_cycle;Signal;HPM_P1;HPM_P2
2023/03/17 00:01:19;;;;;;;7.63;5.93;;;4.70;99.90;;;;;;5034330;28;20236;-29
2023/03/17 00:03:48;;;;;;;9.07;6.33;;;4.70;99.90;;;;;;5032084;28;20179;-29
2023/03/17 00:06:27;;;;;;;9.83;5.70;;;4.60;99.90;;;;;;5032841;28;20186;-29
2023/03/17 00:08:53;;;;;;;7.67;5.27;;;4.60;99.90;;;;;;5049602;28;20181;-29
2023/03/17 00:11:19;;;;;;;6.13;5.03;;;4.60;99.90;;;;;;5034647;28;20205;-29
2023/03/17 00:13:46;;;;;;;8.43;5.90;;;4.60;99.90;;;;;;5032790;28;20176;-30
2023/03/17 00:16:24;;;;;;;9.37;5.43;;;4.60;99.90;;;;;;5029420;28;20229;-29
2023/03/17 00:18:52;;;;;;;9.27;5.60;;;4.60;99.90;;;;;;5029862;28;20179;-28
2023/03/17 00:21:30;;;;;;;10.07;6.50;;;4.60;99.90;;;;;;5032471;28;20181;-29
2023/03/17 00:23:57;;;;;;;9.77;6.20;;;4.60;99.90;;;;;;5032390;28;20186;-29
2023/03/17 00:26:23;;;;;;;7.13;5.90;;;4.70;99.90;;;;;;5048376;28;20182;-30
2023/03/17 00:28:53;;;;;;;7.27;5.37;;;4.70;99.90;;;;;;5049036;28;20183;-29
2023/03/17 00:31:23;;;;;;;9.53;6.67;;;4.70;99.90;;;;;;5016302;28;20186;-29
2023/03/17 00:33:51;;;;;;;8.80;5.63;;;4.60;99.90;;;;;;5049276;28;20190;-29
2023/03/17 00:36:23;;;;;;;8.97;5.33;;;4.60;99.90;;;;;;5025865;28;20243;-29
2023/03/17 00:38:49;;;;;;;7.13;5.13;;;4.50;99.90;;;;;;5052773;28;20178;-29
2023/03/17 00:41:17;;;;;;;7.63;5.93;;;4.50;99.90;;;;;;5064403;28;20194;-29
2023/03/17 00:43:43;;;;;;;8.40;5.70;;;4.40;99.90;;;;;;5032532;28;20205;-29
2023/03/17 00:46:18;;;;;;;6.23;4.87;;;4.40;99.90;;;;;;5032244;28;20272;-29
2023/03/17 00:48:44;;;;;;;7.07;5.00;;;4.30;99.90;;;;;;5032565;28;20183;-29
2023/03/17 00:51:11;;;;;;;8.93;5.37;;;4.20;99.90;;;;;;5032055;28;20186;-28
2023/03/17 00:53:38;;;;;;;8.07;5.07;;;4.00;99.90;;;;;;5015471;28;20530;-29
2023/03/17 00:56:14;;;;;;;5.73;4.67;;;4.00;99.90;;;;;;5032166;28;20175;-29
2023/03/17 00:58:40;;;;;;;9.07;5.13;;;3.80;99.90;;;;;;5032291;28;20201;-29
2023/03/17 01:01:08;;;;;;;5.40;4.30;;;3.80;99.90;;;;;;5032110;28;20289;-29
2023/03/17 01:03:34;;;;;;;6.77;4.93;;;3.80;99.90;;;;;;5048458;28;20182;-29
2023/03/17 01:06:03;;;;;;;8.97;5.20;;;3.80;99.90;;;;;;5056241;28;20178;-29
2023/03/17 01:08:30;;;;;;;7.93;5.10;;;3.70;99.90;;;;;;5051593;28;20178;-29
2023/03/17 01:10:57;;;;;;;6.57;4.37;;;3.70;99.90;;;;;;5049961;28;20204;-29
2023/03/17 01:13:23;;;;;;;6.63;4.53;;;3.80;99.90;;;;;;5031738;28;20218;-28
2023/03/17 01:15:50;;;;;;;5.63;4.23;;;3.90;99.90;;;;;;5048442;28;20179;-29
2023/03/17 01:18:19;;;;;;;6.63;4.67;;;4.00;99.90;;;;;;5048029;28;20233;-29
2023/03/17 01:20:45;;;;;;;6.13;4.07;;;4.00;99.90;;;;;;5031806;28;20245;-29
2023/03/17 01:23:12;;;;;;;6.30;4.33;;;4.00;99.90;;;;;;5031705;28;20206;-28
2023/03/17 01:25:40;;;;;;;9.57;5.13;;;4.10;99.90;;;;;;5031357;28;20182;-28
2023/03/17 01:28:09;;;;;;;8.63;5.67;;;4.10;99.90;;;;;;5031556;28;20183;-29
2023/03/17 01:30:39;;;;;;;7.77;5.27;;;4.00;99.90;;;;;;5032672;28;20210;-28
2023/03/17 01:33:07;;;;;;;6.53;5.07;;;4.00;99.90;;;;;;5031603;28;20210;-28
2023/03/17 01:35:34;;;;;;;7.23;5.30;;;4.00;99.90;;;;;;5053474;28;20181;-28
2023/03/17 01:38:01;;;;;;;6.40;5.17;;;4.00;99.90;;;;;;5037098;28;20178;-29
2023/03/17 01:40:31;;;;;;;8.03;5.50;;;3.90;99.90;;;;;;5031099;28;20206;-29
2023/03/17 01:43:07;;;;;;;11.13;6.13;;;3.90;99.90;;;;;;5032203;28;20206;-29
2023/03/17 01:46:05;;;;;;;5.87;5.17;;;3.80;99.90;;;;;;5031318;28;20213;-28
2023/03/17 01:48:39;;;;;;;8.73;5.87;;;3.70;99.90;;;;;;5030888;28;20194;-28
2023/03/17 01:51:07;;;;;;;7.67;5.50;;;3.80;99.90;;;;;;5031096;28;20185;-29
2023/03/17 01:53:34;;;;;;;8.70;5.60;;;3.80;99.90;;;;;;5014676;28;20190;-29
2023/03/17 01:56:01;;;;;;;7.33;5.47;;;3.80;99.90;;;;;;5031020;28;20167;-29
2023/03/17 01:58:28;;;;;;;8.47;5.20;;;3.80;99.90;;;;;;5047319;28;20175;-30
2023/03/17 02:00:54;;;;;;;6.90;5.03;;;3.90;99.90;;;;;;5030755;28;20223;-29
2023/03/17 02:03:22;;;;;;;6.77;4.97;;;4.00;99.90;;;;;;5030988;28;20179;-29
2023/03/17 02:05:51;;;;;;;7.27;5.20;;;4.00;99.90;;;;;;5037505;28;20216;-29
2023/03/17 02:08:17;;;;;;;6.23;4.77;;;4.00;99.90;;;;;;5065168;28;20186;-29
2023/03/17 02:10:45;;;;;;;7.90;5.13;;;4.00;99.90;;;;;;5060484;28;20206;-28
2023/03/17 02:13:13;;;;;;;9.37;4.73;;;4.00;99.90;;;;;;5014475;28;20214;-28
2023/03/17 02:15:47;;;;;;;6.80;4.57;;;4.00;99.90;;;;;;5046992;28;20196;-29
2023/03/17 02:18:14;;;;;;;6.73;4.27;;;4.00;99.90;;;;;;5046971;28;20226;-29
2023/03/17 02:20:40;;;;;;;6.70;4.77;;;4.00;99.90;;;;;;5046259;28;20194;-29
2023/03/17 02:23:07;;;;;;;6.03;4.20;;;4.00;99.90;;;;;;5032072;28;20174;-28
2023/03/17 02:25:35;;;;;;;6.37;4.60;;;4.00;99.90;;;;;;5030269;28;20189;-29
2023/03/17 02:28:09;;;;;;;5.60;3.90;;;4.10;99.90;;;;;;5030671;28;20299;-29
2023/03/17 02:30:35;;;;;;;4.60;4.10;;;4.10;99.90;;;;;;5014065;28;20217;-29
2023/03/17 02:33:02;;;;;;;7.73;4.30;;;4.10;99.90;;;;;;5014069;28;20210;-29
2023/03/17 02:35:29;;;;;;;6.80;4.77;;;4.10;99.90;;;;;;5038959;28;20189;-29
2023/03/17 02:37:55;;;;;;;7.77;5.10;;;4.10;99.90;;;;;;5035519;28;20182;-29
2023/03/17 02:40:22;;;;;;;5.90;5.23;;;4.10;99.90;;;;;;5030081;28;20213;-29
2023/03/17 02:42:48;;;;;;;5.83;4.37;;;4.10;99.90;;;;;;5030567;28;20193;-30
2023/03/17 02:45:14;;;;;;;4.23;3.70;;;3.90;99.90;;;;;;5029611;28;20248;-30
2023/03/17 02:47:41;;;;;;;6.77;4.47;;;3.80;99.90;;;;;;5013860;28;20178;-30
2023/03/17 02:50:08;;;;;;;7.07;5.10;;;3.80;99.90;;;;;;5030053;28;20199;-29
2023/03/17 02:52:34;;;;;;;6.83;4.83;;;3.80;99.90;;;;;;5030154;28;20257;-29
2023/03/17 02:55:00;;;;;;;5.23;4.37;;;3.70;99.90;;;;;;5045616;28;20772;-31
2023/03/17 02:57:26;;;;;;;6.43;4.60;;;3.70;99.90;;;;;;5030138;28;20178;-30
2023/03/17 02:59:52;;;;;;;6.70;4.90;;;3.70;99.90;;;;;;5029748;28;20209;-30
2023/03/17 03:02:18;;;;;;;5.77;4.70;;;3.60;99.90;;;;;;5031354;28;20174;-30
2023/03/17 03:04:44;;;;;;;6.03;4.50;;;3.60;99.90;;;;;;5027681;28;20183;-30
2023/03/17 03:07:10;;;;;;;6.90;4.80;;;3.60;99.90;;;;;;5037628;28;20182;-30
2023/03/17 03:09:36;;;;;;;6.90;4.70;;;3.60;99.90;;;;;;5029790;28;20574;-31
2023/03/17 03:12:03;;;;;;;8.97;5.13;;;3.60;99.90;;;;;;5031209;28;20214;-30
2023/03/17 03:14:29;;;;;;;8.13;4.57;;;3.60;99.90;;;;;;5029525;28;20233;-30
2023/03/17 03:16:55;;;;;;;6.23;4.30;;;3.60;99.90;;;;;;5029432;28;20178;-30
2023/03/17 03:19:21;;;;;;;7.80;4.27;;;3.70;99.90;;;;;;5029437;28;20205;-30
2023/03/17 03:21:48;;;;;;;9.43;4.50;;;3.70;99.90;;;;;;5046444;28;20258;-31
2023/03/17 03:24:13;;;;;;;7.53;4.67;;;3.70;99.90;;;;;;5031276;28;20173;-30
2023/03/17 03:26:40;;;;;;;6.33;3.90;;;3.60;99.90;;;;;;5029462;28;20182;-30
2023/03/17 03:29:06;;;;;;;8.77;4.20;;;3.60;99.90;;;;;;5046254;28;20286;-29
2023/03/17 03:31:32;;;;;;;5.73;4.37;;;3.60;99.90;;;;;;5030931;28;20205;-30
2023/03/17 03:33:57;;;;;;;6.63;4.43;;;3.60;99.90;;;;;;5010924;28;20187;-30
2023/03/17 03:36:24;;;;;;;6.17;4.00;;;3.60;99.90;;;;;;5041716;28;20638;-30
2023/03/17 03:38:50;;;;;;;5.80;4.20;;;3.60;99.90;;;;;;5034661;28;20170;-30
2023/03/17 03:41:16;;;;;;;7.87;4.43;;;3.60;99.90;;;;;;5034787;28;20241;-30
2023/03/17 03:43:42;;;;;;;6.67;4.10;;;3.60;99.90;;;;;;5033641;28;20178;-30
2023/03/17 03:46:08;;;;;;;8.67;4.17;;;3.60;99.90;;;;;;5033418;28;20178;-30
2023/03/17 03:48:34;;;;;;;5.97;4.10;;;3.60;99.90;;;;;;5050191;28;20765;-30
2023/03/17 03:51:01;;;;;;;7.40;4.23;;;3.50;99.90;;;;;;5049766;28;20285;-30
2023/03/17 03:53:28;;;;;;;5.97;3.93;;;3.50;99.90;;;;;;5049750;28;20230;-30
2023/03/17 03:55:54;;;;;;;6.60;4.20;;;3.30;99.90;;;;;;5049996;28;20269;-29
2023/03/17 03:58:20;;;;;;;5.83;4.23;;;3.30;99.90;;;;;;5050078;28;20175;-30
2023/03/17 04:00:46;;;;;;;6.03;4.30;;;3.20;99.90;;;;;;5049638;28;20239;-30
2023/03/17 04:03:13;;;;;;;8.13;4.30;;;3.20;99.90;;;;;;5050050;28;20190;-29
2023/03/17 04:05:39;;;;;;;6.17;4.53;;;3.10;99.90;;;;;;5052506;28;20181;-29
2023/03/17 04:08:05;;;;;;;10.13;4.60;;;3.10;99.90;;;;;;5049094;28;20239;-30
2023/03/17 04:10:32;;;;;;;7.70;3.97;;;3.10;99.90;;;;;;5056928;28;20210;-30
2023/03/17 04:12:57;;;;;;;6.97;4.03;;;3.10;99.90;;;;;;5033094;28;20244;-30
2023/03/17 04:15:23;;;;;;;6.00;4.37;;;3.20;99.90;;;;;;5016335;28;20174;-30
2023/03/17 04:17:49;;;;;;;5.53;4.03;;;3.10;99.90;;;;;;5034362;28;20254;-30
2023/03/17 04:20:16;;;;;;;6.50;3.90;;;3.10;99.90;;;;;;5032605;28;20317;-30
2023/03/17 04:22:43;;;;;;;6.10;4.00;;;3.20;99.90;;;;;;5034230;28;20182;-30
2023/03/17 04:25:12;;;;;;;5.87;4.07;;;3.10;99.90;;;;;;5049106;28;20193;-30
2023/03/17 04:27:38;;;;;;;6.83;4.60;;;3.10;99.90;;;;;;5049490;28;20190;-29
2023/03/17 04:30:04;;;;;;;7.80;3.90;;;3.10;99.90;;;;;;5032359;28;20210;-29
2023/03/17 04:32:32;;;;;;;5.90;4.53;;;3.00;99.90;;;;;;5033812;28;20213;-29
2023/03/17 04:34:58;;;;;;;8.07;3.97;;;3.10;99.90;;;;;;5040751;28;20178;-29
2023/03/17 04:37:25;;;;;;;6.87;4.60;;;3.10;99.90;;;;;;5060958;28;20587;-30
2023/03/17 04:39:52;;;;;;;6.20;4.03;;;3.00;99.90;;;;;;5046915;28;20202;-30
2023/03/17 04:42:18;;;;;;;7.47;3.70;;;3.00;99.90;;;;;;5033507;28;20194;-30
2023/03/17 04:44:44;;;;;;;6.57;3.73;;;3.00;99.90;;;;;;5047572;28;20190;-30
2023/03/17 04:47:09;;;;;;;6.17;4.30;;;2.90;99.90;;;;;;5032649;28;20328;-29
2023/03/17 04:49:35;;;;;;;5.93;4.30;;;2.90;99.90;;;;;;5032025;28;20270;-30
2023/03/17 04:52:01;;;;;;;6.20;4.43;;;2.90;99.90;;;;;;5032232;28;20290;-29
2023/03/17 04:54:27;;;;;;;6.60;4.60;;;2.80;99.90;;;;;;5030287;28;20273;-29
2023/03/17 04:56:52;;;;;;;6.77;5.50;;;2.80;99.90;;;;;;5047541;28;20181;-29
2023/03/17 04:59:19;;;;;;;9.17;5.50;;;2.80;99.90;;;;;;5048299;28;20198;-29
2023/03/17 05:01:44;;;;;;;9.93;5.30;;;2.80;99.90;;;;;;5048798;28;20240;-29
2023/03/17 05:04:11;;;;;;;7.90;5.30;;;2.80;99.90;;;;;;5031512;28;20206;-29
2023/03/17 05:06:37;;;;;;;11.00;5.37;;;2.70;99.90;;;;;;5023800;28;20187;-30
2023/03/17 05:09:03;;;;;;;8.00;5.43;;;2.70;99.90;;;;;;5029610;28;20742;-30
2023/03/17 05:11:40;;;;;;;10.00;5.30;;;2.70;99.90;;;;;;5014803;28;20233;-30
2023/03/17 05:14:06;;;;;;;9.70;5.30;;;2.70;99.90;;;;;;5030205;28;20181;-29
2023/03/17 05:16:31;;;;;;;7.03;5.20;;;2.70;99.90;;;;;;5044980;28;20233;-30
2023/03/17 05:18:57;;;;;;;8.57;5.50;;;2.70;99.90;;;;;;5024071;28;20175;-29
2023/03/17 05:21:23;;;;;;;9.87;6.50;;;2.70;99.90;;;;;;5031483;28;20190;-30
2023/03/17 05:23:49;;;;;;;7.13;5.77;;;2.60;99.90;;;;;;5031953;28;20179;-30
2023/03/17 05:26:15;;;;;;;6.60;5.00;;;2.60;99.90;;;;;;5031903;28;20313;-29
2023/03/17 05:28:41;;;;;;;6.27;4.70;;;2.50;99.90;;;;;;5029114;28;20179;-30
2023/03/17 05:31:07;;;;;;;6.00;4.70;;;2.50;99.90;;;;;;5028924;28;20215;-30
2023/03/17 05:33:33;;;;;;;8.07;4.63;;;2.50;99.90;;;;;;5045061;28;20209;-29
2023/03/17 05:36:00;;;;;;;7.80;4.70;;;2.40;99.90;;;;;;5038575;28;20173;-30
2023/03/17 05:38:26;;;;;;;7.13;5.13;;;2.40;99.90;;;;;;5031961;28;20204;-29
2023/03/17 05:40:52;;;;;;;8.27;4.80;;;2.40;99.90;;;;;;5031205;28;20284;-30
2023/03/17 05:43:18;;;;;;;6.37;4.27;;;2.30;99.90;;;;;;5036852;28;20282;-29
2023/03/17 05:45:46;;;;;;;7.13;4.50;;;2.30;99.90;;;;;;5032574;28;20186;-29
2023/03/17 05:48:12;;;;;;;5.17;4.20;;;2.30;99.90;;;;;;5031066;28;20190;-30
2023/03/17 05:50:38;;;;;;;5.10;3.90;;;2.30;99.90;;;;;;5030753;28;20681;-29
2023/03/17 05:53:05;;;;;;;6.60;4.30;;;2.30;99.90;;;;;;5031326;28;20209;-29
2023/03/17 05:55:31;;;;;;;5.53;4.13;;;2.30;99.90;;;;;;5038373;28;20232;-30
2023/03/17 05:57:56;;;;;;;8.40;4.50;;;2.30;99.90;;;;;;5011207;28;20183;-30
2023/03/17 06:00:24;;;;;;;10.30;4.60;;;2.30;99.90;;;;;;5013456;28;20201;-30
2023/03/17 06:02:50;;;;;;;10.10;4.73;;;2.30;99.90;;;;;;5020115;28;20171;-30
2023/03/17 06:05:16;;;;;;;7.07;4.33;;;2.30;99.90;;;;;;5045963;28;20185;-29
2023/03/17 06:07:42;;;;;;;11.23;4.87;;;2.30;99.90;;;;;;5015825;28;20177;-29
2023/03/17 06:10:10;;;;;;;6.97;4.57;;;2.30;99.90;;;;;;5023617;28;20206;-30
2023/03/17 06:12:37;;;;;;;8.33;4.90;;;2.40;99.90;;;;;;5036995;28;20221;-30
2023/03/17 06:15:04;;;;;;;11.80;5.70;;;2.40;99.90;;;;;;5027081;28;20214;-30
2023/03/17 06:17:30;;;;;;;7.93;4.97;;;2.50;99.90;;;;;;5026180;28;20185;-29
2023/03/17 06:19:55;;;;;;;6.73;4.67;;;2.50;99.90;;;;;;5037052;28;20198;-29
2023/03/17 06:22:21;;;;;;;8.30;4.50;;;2.50;99.90;;;;;;5021565;28;20186;-30
2023/03/17 06:24:47;;;;;;;6.47;4.60;;;2.60;99.90;;;;;;5034677;28;20190;-30
2023/03/17 06:27:13;;;;;;;8.03;5.17;;;2.60;99.90;;;;;;5011603;28;20191;-30
2023/03/17 06:29:48;;;;;;;12.40;5.20;;;2.70;99.90;;;;;;5014119;28;20252;-30
2023/03/17 06:32:14;;;;;;;10.13;5.03;;;2.70;99.90;;;;;;5031829;28;20289;-29
2023/03/17 06:34:41;;;;;;;9.83;5.20;;;2.80;99.90;;;;;;5031151;28;20266;-30
2023/03/17 06:37:09;;;;;;;12.90;6.13;;;2.80;99.90;;;;;;5031532;28;20175;-29
2023/03/17 06:39:36;;;;;;;8.63;5.80;;;2.90;99.90;;;;;;5030184;28;20213;-30
2023/03/17 06:42:02;;;;;;;15.70;6.03;;;2.90;99.90;;;;;;5046716;28;20186;-30
2023/03/17 06:44:28;;;;;;;9.40;5.57;;;3.00;99.90;;;;;;5024837;28;20208;-29
2023/03/17 06:46:54;;;;;;;8.23;6.47;;;3.10;99.90;;;;;;5050403;28;20186;-30
2023/03/17 06:49:24;;;;;;;13.97;7.23;;;3.20;99.90;;;;;;5045422;28;20198;-30
2023/03/17 06:51:50;;;;;;;8.90;6.40;;;3.30;99.90;;;;;;5014483;28;20206;-30
2023/03/17 06:54:17;;;;;;;9.93;6.47;;;3.50;99.90;;;;;;5043571;28;20174;-30
2023/03/17 06:56:43;;;;;;;6.33;4.40;;;3.60;99.90;;;;;;5026482;28;20170;-30
2023/03/17 06:59:10;;;;;;;8.40;4.30;;;3.70;99.90;;;;;;5028515;28;20201;-30
2023/03/17 07:01:38;;;;;;;5.83;4.00;;;3.80;99.90;;;;;;5011976;28;20278;-30
2023/03/17 07:04:04;;;;;;;6.57;4.30;;;3.90;99.90;;;;;;5035572;28;20201;-30
2023/03/17 07:06:30;;;;;;;8.67;4.47;;;4.00;99.90;;;;;;5025050;28;20171;-31
2023/03/17 07:08:57;;;;;;;8.13;4.60;;;4.00;99.90;;;;;;5032935;28;20180;-30
2023/03/17 07:11:25;;;;;;;7.93;5.37;;;4.10;99.90;;;;;;5022836;28;20175;-33
2023/03/17 07:13:51;;;;;;;7.33;5.00;;;4.10;99.90;;;;;;5033228;28;20202;-32
2023/03/17 07:16:19;;;;;;;7.23;4.90;;;4.20;99.90;;;;;;5040834;28;20706;-32
2023/03/17 07:18:46;;;;;;;6.80;4.57;;;4.20;99.90;;;;;;5037862;28;20181;-33
2023/03/17 07:21:12;;;;;;;9.33;5.10;;;4.30;99.90;;;;;;5018587;28;20183;-33
2023/03/17 07:23:39;;;;;;;7.23;5.07;;;4.40;99.90;;;;;;5021134;28;20181;-33
2023/03/17 07:26:05;;;;;;;7.27;5.00;;;4.50;99.90;;;;;;5021864;28;20256;-33
2023/03/17 07:28:31;;;;;;;8.70;4.60;;;4.60;99.90;;;;;;5032873;28;20656;-30
2023/03/17 07:30:56;;;;;;;7.77;4.73;;;4.80;99.90;;;;;;5020315;28;20234;-30
2023/03/17 07:33:23;;;;;;;7.20;4.80;;;4.90;99.90;;;;;;5043815;28;20226;-30
2023/03/17 07:35:50;;;;;;;5.97;4.33;;;4.90;99.90;;;;;;5047192;28;20175;-30
2023/03/17 07:38:17;;;;;;;6.53;4.70;;;5.00;99.90;;;;;;5030284;28;20647;-30
2023/03/17 07:40:46;;;;;;;10.53;5.17;;;5.10;99.90;;;;;;5034416;28;20204;-31
2023/03/17 07:43:12;;;;;;;5.87;4.23;;;5.20;99.90;;;;;;5035931;28;20234;-31
2023/03/17 07:45:38;;;;;;;8.00;4.30;;;5.40;99.90;;;;;;5037963;28;20183;-31
2023/03/17 07:48:06;;;;;;;8.93;5.03;;;5.50;99.90;;;;;;5046925;28;20189;-31
2023/03/17 07:50:35;;;;;;;7.73;4.60;;;5.50;99.90;;;;;;5045380;28;20204;-30
2023/03/17 07:53:02;;;;;;;6.43;4.33;;;5.70;99.90;;;;;;5029994;28;20200;-30
2023/03/17 07:55:31;;;;;;;7.10;5.17;;;5.80;99.90;;;;;;5044489;28;20179;-31
2023/03/17 07:57:57;;;;;;;9.90;4.13;;;5.90;99.90;;;;;;5040135;28;20177;-31
2023/03/17 08:00:23;;;;;;;7.80;3.93;;;5.90;99.90;;;;;;5010041;28;20199;-30
2023/03/17 08:02:50;;;;;;;5.40;3.93;;;6.00;99.90;;;;;;5023101;28;20190;-30
2023/03/17 08:05:16;;;;;;;6.63;4.10;;;6.10;99.90;;;;;;5025237;28;20238;-30
2023/03/17 08:07:42;;;;;;;6.53;5.30;;;6.20;99.90;;;;;;5026089;28;20185;-31
2023/03/17 08:10:11;;;;;;;6.33;4.53;;;6.20;99.90;;;;;;5010942;28;20210;-31
2023/03/17 08:12:38;;;;;;;6.60;5.03;;;6.30;99.90;;;;;;5035557;28;20208;-31
2023/03/17 08:15:05;;;;;;;6.97;4.23;;;6.50;99.90;;;;;;5042454;28;20192;-30
2023/03/17 08:17:30;;;;;;;7.90;4.50;;;6.50;99.90;;;;;;5067151;28;20620;-30
2023/03/17 08:19:57;;;;;;;5.07;4.00;;;6.60;99.90;;;;;;5053010;28;20288;-30
2023/03/17 08:22:23;;;;;;;5.60;3.77;;;6.60;99.90;;;;;;5053248;28;20239;-30
2023/03/17 08:24:50;;;;;;;6.17;4.00;;;6.70;99.90;;;;;;5053969;28;20204;-30
2023/03/17 08:27:17;;;;;;;7.13;4.37;;;6.80;99.90;;;;;;5043039;28;20190;-30
2023/03/17 08:29:43;;;;;;;5.40;4.20;;;6.90;99.90;;;;;;5049819;28;20264;-30
2023/03/17 08:32:09;;;;;;;5.17;4.20;;;6.90;99.90;;;;;;5034425;28;20213;-30
2023/03/17 08:34:35;;;;;;;8.17;4.33;;;7.00;99.90;;;;;;5049223;28;20213;-31
2023/03/17 08:37:01;;;;;;;6.00;4.17;;;7.10;99.90;;;;;;5049465;28;20174;-30
2023/03/17 08:39:27;;;;;;;6.40;3.70;;;7.20;99.90;;;;;;5049385;28;20201;-30
2023/03/17 08:41:54;;;;;;;5.50;3.77;;;7.20;99.90;;;;;;5032533;28;20194;-30
2023/03/17 08:44:20;;;;;;;5.47;3.97;;;7.30;99.90;;;;;;5043498;28;20186;-30
2023/03/17 08:46:48;;;;;;;3.80;3.20;;;7.50;99.90;;;;;;5069328;28;20181;-30
2023/03/17 08:49:15;;;;;;;6.20;3.47;;;7.60;99.90;;;;;;5053807;28;20207;-30
2023/03/17 08:51:42;;;;;;;5.07;3.20;;;7.70;99.90;;;;;;5035763;28;20236;-30
2023/03/17 08:54:08;;;;;;;5.53;3.60;;;7.90;99.90;;;;;;5053815;28;20182;-30
2023/03/17 08:56:35;;;;;;;5.57;3.80;;;8.10;99.90;;;;;;5052265;28;20196;-30
2023/03/17 08:59:04;;;;;;;7.17;3.17;;;8.20;99.90;;;;;;5052174;28;20296;-30
2023/03/17 09:01:31;;;;;;;7.00;3.73;;;8.40;99.90;;;;;;5053105;28;20224;-30
2023/03/17 09:03:57;;;;;;;3.70;3.20;;;8.60;99.90;;;;;;5068683;28;20220;-29
2023/03/17 09:06:24;;;;;;;5.50;4.00;;;8.80;99.90;;;;;;5035872;28;20188;-30
2023/03/17 09:08:53;;;;;;;5.03;3.83;;;9.00;99.90;;;;;;5053548;28;20212;-30
2023/03/17 09:11:22;;;;;;;5.23;3.80;;;9.10;99.90;;;;;;5053069;28;20677;-30
2023/03/17 09:13:49;;;;;;;4.07;3.33;;;9.20;99.90;;;;;;5045731;28;20218;-30
2023/03/17 09:16:16;;;;;;;6.83;3.90;;;9.40;99.90;;;;;;5049485;28;20185;-29
2023/03/17 09:18:43;;;;;;;6.00;3.03;;;9.60;99.90;;;;;;5053014;28;20174;-29
2023/03/17 09:21:11;;;;;;;4.50;3.07;;;9.70;99.90;;;;;;5035090;28;20627;-29
2023/03/17 09:23:37;;;;;;;3.80;3.27;;;9.70;99.90;;;;;;5052965;28;20178;-30
2023/03/17 09:26:03;;;;;;;5.37;2.63;;;9.60;99.90;;;;;;5052620;28;20194;-29
2023/03/17 09:28:29;;;;;;;4.60;2.90;;;9.70;99.90;;;;;;5051994;28;20186;-30
2023/03/17 09:31:00;;;;;;;3.57;2.60;;;9.90;99.90;;;;;;5051216;28;20217;-30
2023/03/17 09:33:26;;;;;;;5.87;3.40;;;10.00;99.90;;;;;;5034858;28;20216;-29
2023/03/17 09:35:53;;;;;;;6.27;2.80;;;10.10;99.90;;;;;;5052708;28;20190;-30
2023/03/17 09:38:19;;;;;;;3.63;2.53;;;10.30;99.90;;;;;;5052567;28;20182;-29
2023/03/17 09:41:03;;;;;;;5.43;3.00;;;10.40;99.90;;;;;;5052586;28;20209;-30
2023/03/17 09:43:58;;;;;;;5.17;3.40;;;10.50;99.90;;;;;;5063123;28;20190;-31
2023/03/17 09:46:38;;;;;;;3.97;3.20;;;10.70;99.90;;;;;;5051239;28;20198;-31
2023/03/17 09:49:19;;;;;;;4.83;3.60;;;10.90;99.90;;;;;;5052584;28;20206;-29
2023/03/17 09:51:46;;;;;;;6.70;3.67;;;11.20;99.90;;;;;;5042453;28;20184;-30
2023/03/17 09:54:14;;;;;;;9.50;3.93;;;11.30;99.90;;;;;;5029268;28;20190;-30
2023/03/17 09:56:46;;;;;;;5.63;3.57;;;11.50;99.90;;;;;;5038775;28;20256;-29
2023/03/17 09:59:32;;;;;;;5.23;3.10;;;11.70;99.90;;;;;;5027305;28;20207;-31
2023/03/17 10:01:58;;;;;;;4.53;3.30;;;11.90;99.90;;;;;;5032378;28;20180;-30
2023/03/17 10:04:24;;;;;;;4.40;3.27;;;12.00;99.90;;;;;;5029366;28;20244;-30
2023/03/17 10:06:55;;;;;;;6.97;3.50;;;12.10;99.90;;;;;;5019911;28;20288;-30
2023/03/17 10:09:30;;;;;;;6.17;3.40;;;12.20;99.90;;;;;;5031487;28;20202;-30
2023/03/17 10:12:09;;;;;;;4.03;2.90;;;12.30;99.90;;;;;;5030649;28;20224;-30
2023/03/17 10:14:59;;;;;;;5.77;3.60;;;12.60;99.90;;;;;;5037981;28;20181;-30
2023/03/17 10:17:33;;;;;;;3.33;3.00;;;12.80;99.90;;;;;;5051989;28;20253;-30
2023/03/17 10:20:24;;;;;;;4.53;2.90;;;13.00;99.90;;;;;;5031926;28;20195;-30
2023/03/17 10:22:56;;;;;;;3.40;2.90;;;13.20;99.90;;;;;;5043518;28;20244;-30
2023/03/17 10:25:31;;;;;;;5.53;3.10;;;13.30;99.90;;;;;;5016020;28;20183;-30
2023/03/17 10:28:14;;;;;;;2.97;2.67;;;13.50;99.90;;;;;;5029205;28;20181;-31
2023/03/17 10:30:42;;;;;;;3.17;2.57;;;13.60;99.90;;;;;;5046475;28;20210;-31
2023/03/17 10:33:08;;;;;;;4.73;3.33;;;13.70;99.90;;;;;;5046971;28;20304;-30
2023/03/17 10:35:36;;;;;;;4.73;2.80;;;13.80;99.90;;;;;;5030696;28;20182;-30
2023/03/17 10:38:20;;;;;;;6.00;3.27;;;13.80;99.90;;;;;;5020865;28;20174;-29
2023/03/17 10:41:02;;;;;;;5.40;2.93;;;13.90;99.90;;;;;;5029695;28;20195;-29
2023/03/17 10:43:38;;;;;;;3.93;3.40;;;13.90;99.90;;;;;;5037045;28;20190;-34
2023/03/17 10:46:16;;;;;;;4.90;3.40;;;13.90;99.90;;;;;;5034262;28;20232;-30
2023/03/17 10:48:52;;;;;;;4.13;3.43;;;13.90;99.90;;;;;;5061211;28;20171;-31
2023/03/17 10:51:49;;;;;;;4.03;2.80;;;14.00;99.90;;;;;;5031496;28;20185;-31
2023/03/17 10:54:17;;;;;;;4.27;3.27;;;13.90;99.90;;;;;;5031021;28;20194;-31
2023/03/17 10:56:48;;;;;;;7.03;3.00;;;14.10;99.90;;;;;;5030161;28;20228;-31
2023/03/17 10:59:47;;;;;;;4.13;2.97;;;14.20;99.90;;;;;;5030741;28;20198;-32
2023/03/17 11:02:24;;;;;;;3.93;2.57;;;14.40;99.90;;;;;;5003185;28;20199;-31
2023/03/17 11:04:54;;;;;;;4.83;2.70;;;14.50;99.90;;;;;;5010306;28;20237;-32
2023/03/17 11:07:28;;;;;;;3.33;2.70;;;14.60;99.90;;;;;;5009495;28;20234;-32
2023/03/17 11:09:59;;;;;;;3.80;2.90;;;14.70;99.90;;;;;;5010158;28;20257;-31
2023/03/17 11:12:28;;;;;;;7.13;3.10;;;14.80;99.90;;;;;;5016634;28;20214;-32
2023/03/17 11:15:00;;;;;;;3.57;2.43;;;15.10;99.90;;;;;;5007035;28;20191;-30
2023/03/17 11:17:30;;;;;;;3.47;2.60;;;15.30;99.90;;;;;;5010221;28;20230;-32
2023/03/17 11:19:56;;;;;;;3.47;2.63;;;15.40;99.90;;;;;;5026516;28;20195;-32
2023/03/17 11:22:40;;;;;;;2.97;2.57;;;15.60;99.90;;;;;;5031150;28;20188;-32
2023/03/17 11:25:14;;;;;;;2.83;2.53;;;15.80;99.90;;;;;;5032861;28;20192;-32
2023/03/17 11:27:50;;;;;;;3.43;2.67;;;16.00;99.90;;;;;;5036662;28;20183;-30
2023/03/17 11:30:38;;;;;;;4.27;2.70;;;16.10;99.90;;;;;;5030742;28;20210;-30
2023/03/17 11:33:29;;;;;;;2.73;2.10;;;16.30;99.90;;;;;;5029020;28;20301;-32
2023/03/17 11:36:02;;;;;;;4.20;2.60;;;16.60;99.90;;;;;;5030549;28;20193;-30
2023/03/17 11:38:30;;;;;;;2.83;2.40;;;16.80;99.90;;;;;;5043127;28;20616;-31
2023/03/17 11:41:21;;;;;;;4.47;2.60;;;16.90;99.90;;;;;;5035528;28;20237;-31
2023/03/17 11:44:17;;;;;;;3.83;2.00;;;16.90;99.90;;;;;;5015097;28;20186;-32
2023/03/17 11:46:47;;;;;;;4.25;2.60;;;16.90;99.90;;;;;;5041698;28;20190;-31
2023/03/17 11:49:48;;;;;;;2.40;2.00;;;16.80;99.90;;;;;;5034585;28;20245;-30
2023/03/17 11:52:53;;;;;;;4.03;2.25;;;16.80;99.90;;;;;;5010357;28;20681;-30
2023/03/17 11:55:43;;;;;;;3.35;2.03;;;16.70;99.90;;;;;;5052024;28;20247;-30
2023/03/17 11:58:20;;;;;;;2.35;2.10;;;16.70;99.90;;;;;;5036304;28;20205;-31
2023/03/17 12:00:52;;;;;;;2.85;2.15;;;16.80;99.90;;;;;;5053573;28;20228;-31
2023/03/17 12:03:34;;;;;;;3.85;2.40;;;17.00;99.90;;;;;;5038850;28;20182;-30
2023/03/17 12:06:06;;;;;;;5.03;2.55;;;17.20;99.90;;;;;;5042283;28;20257;-30
2023/03/17 12:08:41;;;;;;;4.05;2.67;;;17.50;99.90;;;;;;5064927;28;20178;-31
2023/03/17 12:11:19;;;;;;;3.20;2.33;;;17.60;99.90;;;;;;5066053;28;20650;-31
2023/03/17 12:13:58;;;;;;;3.50;2.55;;;17.80;99.90;;;;;;5040668;28;20202;-31
2023/03/17 12:17:17;;;;;;;6.95;2.60;;;17.90;99.90;;;;;;5038409;28;20250;-32
2023/03/17 12:20:17;;;;;;;4.22;2.28;;;18.00;99.90;;;;;;4979651;28;20203;-31
2023/03/17 12:22:58;;;;;;;4.05;2.13;;;18.00;99.90;;;;;;5030101;28;20195;-31
2023/03/17 12:25:36;;;;;;;2.80;2.08;;;18.00;99.90;;;;;;5034763;28;20166;-30
2023/03/17 12:28:17;;;;;;;3.20;2.00;;;18.20;99.90;;;;;;5041370;28;20174;-31
2023/03/17 12:30:51;;;;;;;2.53;2.00;;;18.30;99.90;;;;;;5043034;28;20210;-30
2023/03/17 12:33:48;;;;;;;3.75;2.30;;;18.40;99.90;;;;;;5033070;28;20229;-31
2023/03/17 12:36:16;;;;;;;3.20;2.03;;;18.40;99.90;;;;;;5009323;28;20163;-31
2023/03/17 12:39:00;;;;;;;4.10;1.55;;;18.50;99.90;;;;;;5030224;28;20190;-31
2023/03/17 12:41:47;;;;;;;2.53;1.80;;;18.60;99.90;;;;;;5033267;28;20194;-31
2023/03/17 12:44:32;;;;;;;2.78;1.92;;;18.50;99.90;;;;;;5056966;28;20186;-31
2023/03/17 12:47:16;;;;;;;2.70;1.60;;;18.50;99.90;;;;;;5018673;28;20180;-32
2023/03/17 12:50:11;;;;;;;2.00;1.77;;;18.50;99.90;;;;;;5050153;28;20217;-31
2023/03/17 12:52:52;;;;;;;2.45;1.65;;;18.50;99.90;;;;;;5024593;28;20210;-31
2023/03/17 12:55:24;;;;;;;5.05;1.52;;;18.40;99.90;;;;;;5034860;28;20236;-31
2023/03/17 12:58:28;;;;;;;2.13;1.40;;;18.40;99.90;;;;;;5050009;28;20205;-31
2023/03/17 13:01:17;;;;;;;3.83;1.60;;;18.40;99.90;;;;;;5032891;28;20214;-31
2023/03/17 13:04:10;;;;;;;3.03;1.67;;;18.50;99.90;;;;;;5009088;28;20193;-33
2023/03/17 13:07:01;;;;;;;3.20;1.73;;;18.60;99.90;;;;;;5038906;28;20189;-31
2023/03/17 13:09:42;;;;;;;2.47;1.70;;;18.70;99.90;;;;;;5044450;28;20198;-32